Time;durP1;ratioP1;P1;durP2;ratioP2;P2;SDS_P1;SDS_P2;PMS_P1;PMS_P2;Temp;Humidity;BMP_temperature;BMP_pressure;BME280_temperature;BME280_humidity;BME280_pressure;Samples;Min_cycle;Max_cycle;Signal;HPM_P1;HPM_P2
2022/03/11 00:00:04;;;;;;;;;;;;;;;;;;4347461;33;20184;-86
2022/03/11 00:02:30;;;;;;;15.57;10.35;;;;;;;;;;4334572;33;19949;-87
2022/03/11 00:05:04;;;;;;;20.67;9.75;;;;;;;;;;4348125;33;20121;-87
2022/03/11 00:07:30;;;;;;;18.15;11.50;;;;;;;;;;4346958;33;20354;-87
2022/03/11 00:09:55;;;;;;;;;;;;;;;;;;4335582;33;20085;-88
2022/03/11 00:12:20;;;;;;;15.82;9.93;;;;;;;;;;4334789;33;20408;-86
2022/03/11 00:14:46;;;;;;;;;;;;;;;;;;4346908;33;20035;-86
2022/03/11 00:17:11;;;;;;;15.38;10.35;;;;;;;;;;4348088;33;19934;-85
2022/03/11 00:19:36;;;;;;;;;;;;;;;;;;4346630;33;20045;-85
2022/03/11 00:22:02;;;;;;;17.00;10.77;;;;;;;;;;4334323;33;19977;-86
2022/03/11 00:24:27;;;;;;;;;;;;;;;;;;4346411;32;20058;-86
2022/03/11 00:26:56;;;;;;;17.80;10.80;;;;;;;;;;4334061;33;19969;-85
2022/03/11 00:29:22;;;;;;;19.25;10.50;;;;;;;;;;4343967;33;20039;-84
2022/03/11 00:31:47;;;;;;;15.45;9.30;;;;;;;;;;4345610;33;20349;-85
2022/03/11 00:34:12;;;;;;;;;;;;;;;;;;4347110;33;20104;-85
2022/03/11 00:36:37;;;;;;;18.80;10.60;;;;;;;;;;4334320;33;19938;-86
2022/03/11 00:39:03;;;;;;;;;;;;;;;;;;4336556;33;20027;-85
2022/03/11 00:41:28;;;;;;;16.55;9.82;;;;;;;;;;4335627;33;19934;-87
2022/03/11 00:43:55;;;;;;;17.05;10.32;;;;;;;;;;4347026;33;20016;-86
2022/03/11 00:46:20;;;;;;;17.48;10.55;;;;;;;;;;4335132;33;20019;-85
2022/03/11 00:48:45;;;;;;;17.10;9.80;;;;;;;;;;4346025;33;20042;-86
2022/03/11 00:51:13;;;;;;;17.07;9.70;;;;;;;;;;4346163;33;20121;-85
2022/03/11 00:53:39;;;;;;;18.00;10.57;;;;;;;;;;4346454;33;20132;-86
2022/03/11 00:56:04;;;;;;;19.55;11.05;;;;;;;;;;4346321;33;20090;-84
2022/03/11 00:58:29;;;;;;;;;;;;;;;;;;4346461;33;20050;-87
2022/03/11 01:00:54;;;;;;;19.58;10.55;;;;;;;;;;4333831;33;19947;-85
2022/03/11 01:03:25;;;;;;;;;;;;;;;;;;4348176;33;20020;-85
2022/03/11 01:06:06;;;;;;;21.27;11.23;;;;;;;;;;4345950;33;20254;-86
2022/03/11 01:08:31;;;;;;;17.70;10.00;;;;;;;;;;4335081;33;20059;-86
2022/03/11 01:10:59;;;;;;;16.58;10.30;;;;;;;;;;4346512;33;20054;-86
2022/03/11 01:13:24;;;;;;;18.65;10.88;;;;;;;;;;4347203;33;20050;-86
2022/03/11 01:15:56;;;;;;;15.85;10.20;;;;;;;;;;4348227;33;20373;-86
2022/03/11 01:18:21;;;;;;;17.17;10.25;;;;;;;;;;4335042;33;20058;-85
2022/03/11 01:20:47;;;;;;;15.55;9.50;;;;;;;;;;4347156;33;20448;-85
2022/03/11 01:23:13;;;;;;;18.40;10.63;;;;;;;;;;4348188;33;20019;-83
2022/03/11 01:25:38;;;;;;;17.70;11.57;;;;;;;;;;4334248;33;20457;-85
2022/03/11 01:28:03;;;;;;;;;;;;;;;;;;4333433;33;20117;-85
2022/03/11 01:30:28;;;;;;;15.60;10.88;;;;;;;;;;4348445;33;19974;-86
2022/03/11 01:32:53;;;;;;;;;;;;;;;;;;4337455;33;20036;-84
2022/03/11 01:35:19;;;;;;;17.42;10.75;;;;;;;;;;4352374;33;20258;-86
2022/03/11 01:37:44;;;;;;;;;;;;;;;;;;4357538;27;20005;-77
2022/03/11 01:40:09;;;;;;;19.83;11.12;;;;;;;;;;4359284;32;20009;-76
2022/03/11 01:42:36;;;;;;;;;;;;;;;;;;4363226;32;20073;-78
2022/03/11 01:45:02;;;;;;;16.77;10.00;;;;;;;;;;4364447;33;19968;-78
2022/03/11 01:47:27;;;;;;;17.85;10.63;;;;;;;;;;4363263;33;20039;-77
2022/03/11 01:49:53;;;;;;;16.98;10.23;;;;;;;;;;4362720;32;20024;-76
2022/03/11 01:52:18;;;;;;;;;;;;;;;;;;4363373;33;20092;-77
2022/03/11 01:54:43;;;;;;;19.10;9.90;;;;;;;;;;4363251;32;19939;-77
2022/03/11 01:57:09;;;;;;;;;;;;;;;;;;4362937;32;20158;-77
2022/03/11 01:59:34;;;;;;;16.52;10.34;;;;;;;;;;4361582;32;19985;-77
2022/03/11 02:01:59;;;;;;;;;;;;;;;;;;4362664;32;20019;-77
2022/03/11 02:04:24;;;;;;;22.23;10.50;;;;;;;;;;4362145;32;19934;-77
2022/03/11 02:06:49;;;;;;;;;;;;;;;;;;4348599;33;20035;-77
2022/03/11 02:09:15;;;;;;;20.48;10.95;;;;;;;;;;4361518;32;19988;-78
2022/03/11 02:11:40;;;;;;;;;;;;;;;;;;4362621;32;20027;-77
2022/03/11 02:14:05;;;;;;;21.33;11.27;;;;;;;;;;4361010;32;19938;-76
2022/03/11 02:16:30;;;;;;;;;;;;;;;;;;4348547;33;20019;-77
2022/03/11 02:18:56;;;;;;;17.80;10.43;;;;;;;;;;4360843;33;20348;-77
2022/03/11 02:21:22;;;;;;;19.42;10.95;;;;;;;;;;4361306;33;20116;-77
2022/03/11 02:23:49;;;;;;;18.23;10.45;;;;;;;;;;4364264;32;20046;-77
2022/03/11 02:26:15;;;;;;;19.98;10.82;;;;;;;;;;4364430;32;20065;-76
2022/03/11 02:28:41;;;;;;;17.37;10.55;;;;;;;;;;4364221;32;20030;-77
2022/03/11 02:31:06;;;;;;;;;;;;;;;;;;4362650;32;20038;-77
2022/03/11 02:33:31;;;;;;;22.98;10.57;;;;;;;;;;4362913;32;20354;-78
2022/03/11 02:35:56;;;;;;;;;;;;;;;;;;4348799;33;20024;-77
2022/03/11 02:38:21;;;;;;;22.48;11.30;;;;;;;;;;4362384;32;20335;-78
2022/03/11 02:40:46;;;;;;;;;;;;;;;;;;4361365;32;20086;-77
2022/03/11 02:43:12;;;;;;;20.12;11.07;;;;;;;;;;4361531;33;19938;-77
2022/03/11 02:45:38;;;;;;;;;;;;;;;;;;4363189;32;20107;-78
2022/03/11 02:48:03;;;;;;;18.17;10.70;;;;;;;;;;4347996;33;19942;-76
2022/03/11 02:50:28;;;;;;;20.73;11.90;;;;;;;;;;4349096;33;20070;-78
2022/03/11 02:52:53;;;;;;;;;;;;;;;;;;4362143;32;20078;-77
2022/03/11 02:55:18;;;;;;;18.10;10.63;;;;;;;;;;4362253;32;19934;-77
2022/03/11 02:57:44;;;;;;;18.58;10.88;;;;;;;;;;4362955;32;20119;-76
2022/03/11 03:00:09;;;;;;;;;;;;;;;;;;4361681;33;20019;-76
2022/03/11 03:02:34;;;;;;;16.40;10.93;;;;;;;;;;4361849;32;19958;-76
2022/03/11 03:05:01;;;;;;;;;;;;;;;;;;4361514;32;20120;-77
2022/03/11 03:07:26;;;;;;;19.98;11.65;;;;;;;;;;4361755;33;20277;-76
2022/03/11 03:09:52;;;;;;;;;;;;;;;;;;4363797;32;20120;-76
2022/03/11 03:12:17;;;;;;;19.80;10.90;;;;;;;;;;4350505;33;19977;-77
2022/03/11 03:14:42;;;;;;;;;;;;;;;;;;4364688;32;20059;-77
2022/03/11 03:17:07;;;;;;;19.80;10.70;;;;;;;;;;4363094;32;19957;-78
2022/03/11 03:19:32;;;;;;;;;;;;;;;;;;4349894;32;20182;-77
2022/03/11 03:21:57;;;;;;;25.20;10.68;;;;;;;;;;4347876;33;20378;-77
2022/03/11 03:24:22;;;;;;;;;;;;;;;;;;4361479;33;20172;-78
2022/03/11 03:26:48;;;;;;;19.00;10.95;;;;;;;;;;4360889;32;19938;-76
2022/03/11 03:29:13;;;;;;;;;;;;;;;;;;4348873;33;20038;-77
2022/03/11 03:31:38;;;;;;;20.92;11.40;;;;;;;;;;4347591;33;19938;-77
2022/03/11 03:34:03;;;;;;;;;;;;;;;;;;4361882;32;20373;-77
2022/03/11 03:36:28;;;;;;;18.05;10.57;;;;;;;;;;4361063;33;19939;-75
2022/03/11 03:38:53;;;;;;;;;;;;;;;;;;4361709;32;20148;-77
2022/03/11 03:41:18;;;;;;;20.70;10.65;;;;;;;;;;4347392;33;19954;-77
2022/03/11 03:43:43;;;;;;;;;;;;;;;;;;4347909;33;20446;-77
2022/03/11 03:46:09;;;;;;;20.10;10.82;;;;;;;;;;4347022;33;20006;-76
2022/03/11 03:48:34;;;;;;;;;;;;;;;;;;4348154;33;20074;-76
2022/03/11 03:50:59;;;;;;;18.75;10.25;;;;;;;;;;4348191;33;19953;-76
2022/03/11 03:53:25;;;;;;;22.70;11.57;;;;;;;;;;4359540;33;20031;-78
2022/03/11 03:55:50;;;;;;;;;;;;;;;;;;4361889;32;20054;-76
2022/03/11 03:58:15;;;;;;;20.33;10.43;;;;;;;;;;4347235;33;19969;-77
2022/03/11 04:00:40;;;;;;;;;;;;;;;;;;4359528;33;20373;-77
2022/03/11 04:03:05;;;;;;;17.60;10.48;;;;;;;;;;4346446;33;19938;-77
2022/03/11 04:05:30;;;;;;;;;;;;;;;;;;4360834;32;20039;-77
2022/03/11 04:07:55;;;;;;;18.65;10.50;;;;;;;;;;4360443;33;19934;-77
2022/03/11 04:10:21;;;;;;;;;;;;;;;;;;4346974;33;20020;-76
2022/03/11 04:12:46;;;;;;;21.45;10.45;;;;;;;;;;4346788;33;19958;-76
2022/03/11 04:15:12;;;;;;;25.52;12.13;;;;;;;;;;4360554;33;20132;-78
2022/03/11 04:17:37;;;;;;;;;;;;;;;;;;4361717;32;20475;-78
2022/03/11 04:20:02;;;;;;;21.45;10.85;;;;;;;;;;4347083;33;20358;-77
2022/03/11 04:22:28;;;;;;;;;;;;;;;;;;4347062;33;20061;-76
2022/03/11 04:24:53;;;;;;;20.52;11.95;;;;;;;;;;4347001;33;19974;-76
2022/03/11 04:27:18;;;;;;;18.43;10.47;;;;;;;;;;4346359;33;20159;-76
2022/03/11 04:29:43;;;;;;;;;;;;;;;;;;4346863;33;20158;-76
2022/03/11 04:32:08;;;;;;;19.00;10.27;;;;;;;;;;4360831;32;20005;-77
2022/03/11 04:34:34;;;;;;;;;;;;;;;;;;4361319;32;20054;-77
2022/03/11 04:36:59;;;;;;;18.00;10.82;;;;;;;;;;4346486;33;19945;-78
2022/03/11 04:39:26;;;;;;;;;;;;;;;;;;4346743;33;20066;-76
2022/03/11 04:41:53;;;;;;;17.65;11.35;;;;;;;;;;4347020;33;19935;-76
2022/03/11 04:44:18;;;;;;;15.75;10.38;;;;;;;;;;4347206;33;20617;-76
2022/03/11 04:46:43;;;;;;;;;;;;;;;;;;4346762;33;20077;-77
2022/03/11 04:49:08;;;;;;;19.00;10.75;;;;;;;;;;4347999;33;19946;-76
2022/03/11 04:51:33;;;;;;;;;;;;;;;;;;4346927;33;20162;-77
2022/03/11 04:53:59;;;;;;;20.77;12.02;;;;;;;;;;4346296;33;19949;-78
2022/03/11 04:56:26;;;;;;;17.17;10.88;;;;;;;;;;4346236;33;20027;-77
2022/03/11 04:58:51;;;;;;;20.90;10.77;;;;;;;;;;4346515;33;20455;-77
2022/03/11 05:01:16;;;;;;;21.95;10.65;;;;;;;;;;4359856;33;20020;-77
2022/03/11 05:03:41;;;;;;;;;;;;;;;;;;4346577;33;20353;-76
2022/03/11 05:06:06;;;;;;;21.52;12.25;;;;;;;;;;4361164;33;19973;-77
2022/03/11 05:08:32;;;;;;;17.60;10.70;;;;;;;;;;4359833;33;20139;-78
2022/03/11 05:10:57;;;;;;;;;;;;;;;;;;4346532;33;20046;-76
2022/03/11 05:13:22;;;;;;;20.45;11.43;;;;;;;;;;4346067;33;19966;-77
2022/03/11 05:15:47;;;;;;;;;;;;;;;;;;4361820;32;20069;-77
2022/03/11 05:18:12;;;;;;;20.73;11.12;;;;;;;;;;4349116;33;19949;-77
2022/03/11 05:20:37;;;;;;;;;;;;;;;;;;4349180;33;20516;-76
2022/03/11 05:23:03;;;;;;;18.95;10.30;;;;;;;;;;4363455;32;19974;-77
2022/03/11 05:25:28;;;;;;;;;;;;;;;;;;4360756;32;20027;-78
2022/03/11 05:27:53;;;;;;;16.50;10.43;;;;;;;;;;4349047;33;19950;-77
2022/03/11 05:30:18;;;;;;;;;;;;;;;;;;4363721;32;20150;-77
2022/03/11 05:32:45;;;;;;;20.10;10.85;;;;;;;;;;4362088;33;19982;-76
2022/03/11 05:35:10;;;;;;;19.62;10.20;;;;;;;;;;4362831;32;20027;-76
2022/03/11 05:37:35;;;;;;;;;;;;;;;;;;4362869;32;20047;-78
2022/03/11 05:40:01;;;;;;;18.12;9.80;;;;;;;;;;4350340;32;19938;-77
2022/03/11 05:42:26;;;;;;;17.30;10.80;;;;;;;;;;4363708;32;20225;-77
2022/03/11 05:44:51;;;;;;;;;;;;;;;;;;4348927;33;20023;-77
2022/03/11 05:47:16;;;;;;;14.15;9.50;;;;;;;;;;4349656;33;19939;-77
2022/03/11 05:49:41;;;;;;;;;;;;;;;;;;4349736;33;20089;-76
2022/03/11 05:52:06;;;;;;;21.40;11.65;;;;;;;;;;4349374;33;20288;-77
2022/03/11 05:54:32;;;;;;;;;;;;;;;;;;4362688;32;20050;-77
2022/03/11 05:56:57;;;;;;;14.23;9.88;;;;;;;;;;4348757;33;19942;-77
2022/03/11 05:59:22;;;;;;;;;;;;;;;;;;4348967;33;20081;-77
2022/03/11 06:01:48;;;;;;;18.28;10.16;;;;;;;;;;4348416;33;19942;-77
2022/03/11 06:04:13;;;;;;;;;;;;;;;;;;4361736;32;20035;-77
2022/03/11 06:06:38;;;;;;;22.95;9.80;;;;;;;;;;4361851;33;19962;-78
2022/03/11 06:09:03;;;;;;;;;;;;;;;;;;4362848;32;20053;-76
2022/03/11 06:11:28;;;;;;;17.02;10.00;;;;;;;;;;4361911;32;19962;-77
2022/03/11 06:13:53;;;;;;;;;;;;;;;;;;4359058;32;20032;-78
2022/03/11 06:16:19;;;;;;;23.77;10.60;;;;;;;;;;4357494;32;19943;-77
2022/03/11 06:18:44;;;;;;;;;;;;;;;;;;4333994;33;20417;-77
2022/03/11 06:21:09;;;;;;;23.52;11.07;;;;;;;;;;4333410;33;19938;-77
2022/03/11 06:23:35;;;;;;;;;;;;;;;;;;4347135;33;20368;-77
2022/03/11 06:26:01;;;;;;;17.02;9.73;;;;;;;;;;4346915;33;19953;-77
2022/03/11 06:28:26;;;;;;;17.47;10.13;;;;;;;;;;4346924;33;20087;-77
2022/03/11 06:30:51;;;;;;;;;;;;;;;;;;4334583;33;20195;-78
2022/03/11 06:33:16;;;;;;;22.17;9.77;;;;;;;;;;4346757;33;20332;-78
2022/03/11 06:35:42;;;;;;;;;;;;;;;;;;4333772;33;20050;-77
2022/03/11 06:38:07;;;;;;;22.10;10.82;;;;;;;;;;4333156;33;20245;-77
2022/03/11 06:40:32;;;;;;;17.67;10.38;;;;;;;;;;4333146;33;20148;-77
2022/03/11 06:42:57;;;;;;;;;;;;;;;;;;4347109;33;20114;-77
2022/03/11 06:45:23;;;;;;;17.80;9.73;;;;;;;;;;4333317;33;20002;-76
2022/03/11 06:47:48;;;;;;;20.12;10.52;;;;;;;;;;4332970;33;20190;-78
2022/03/11 06:50:13;;;;;;;;;;;;;;;;;;4333871;33;20091;-77
2022/03/11 06:52:38;;;;;;;17.23;9.07;;;;;;;;;;4333595;33;19945;-77
2022/03/11 06:55:04;;;;;;;17.95;10.20;;;;;;;;;;4333070;33;20147;-77
2022/03/11 06:57:29;;;;;;;;;;;;;;;;;;4333470;33;20365;-78
2022/03/11 06:59:55;;;;;;;20.25;10.50;;;;;;;;;;4332129;33;19943;-76
2022/03/11 07:02:20;;;;;;;29.23;9.77;;;;;;;;;;4332902;33;20147;-77
2022/03/11 07:04:45;;;;;;;22.10;9.70;;;;;;;;;;4332217;33;20458;-76
2022/03/11 07:07:10;;;;;;;;;;;;;;;;;;4344799;33;20027;-78
2022/03/11 07:09:35;;;;;;;16.50;10.23;;;;;;;;;;4332368;33;19935;-76
2022/03/11 07:12:04;;;;;;;;;;;;;;;;;;4332812;33;20334;-78
2022/03/11 07:14:34;;;;;;;24.00;9.73;;;;;;;;;;4333799;33;19990;-78
2022/03/11 07:17:00;;;;;;;21.48;10.98;;;;;;;;;;4332376;33;20047;-77
2022/03/11 07:19:27;;;;;;;21.95;9.80;;;;;;;;;;4332436;33;20028;-80
2022/03/11 07:21:52;;;;;;;15.68;9.70;;;;;;;;;;4333701;33;20020;-77
2022/03/11 07:24:17;;;;;;;20.67;9.85;;;;;;;;;;4332484;33;20048;-78
2022/03/11 07:26:43;;;;;;;;;;;;;;;;;;4348839;33;20067;-77
2022/03/11 07:29:08;;;;;;;15.90;8.98;;;;;;;;;;4335398;33;19945;-76
2022/03/11 07:31:33;;;;;;;;;;;;;;;;;;4345301;33;20099;-78
2022/03/11 07:33:58;;;;;;;17.90;10.20;;;;;;;;;;4360912;32;19934;-77
2022/03/11 07:36:24;;;;;;;16.33;9.70;;;;;;;;;;4347207;33;20206;-79
2022/03/11 07:38:49;;;;;;;;;;;;;;;;;;4346506;33;20109;-77
2022/03/11 07:41:17;;;;;;;22.58;11.25;;;;;;;;;;4359567;33;19990;-78
2022/03/11 07:43:44;;;;;;;22.25;10.30;;;;;;;;;;4359134;33;20093;-78
2022/03/11 07:46:16;;;;;;;20.35;9.63;;;;;;;;;;4350560;32;20051;-78
2022/03/11 07:48:41;;;;;;;16.55;9.15;;;;;;;;;;4360878;32;20027;-78
2022/03/11 07:51:07;;;;;;;35.97;11.80;;;;;;;;;;4346519;33;20066;-76
2022/03/11 07:53:32;;;;;;;;;;;;;;;;;;4346519;33;20059;-77
2022/03/11 07:55:57;;;;;;;20.27;9.73;;;;;;;;;;4360094;32;19953;-77
2022/03/11 07:58:24;;;;;;;22.23;10.30;;;;;;;;;;4356925;32;20525;-76
2022/03/11 08:00:49;;;;;;;19.55;9.48;;;;;;;;;;4355567;32;20023;-78
2022/03/11 08:03:15;;;;;;;25.83;10.05;;;;;;;;;;4345973;33;20077;-77
2022/03/11 08:05:41;;;;;;;16.45;9.88;;;;;;;;;;4343846;33;20023;-77
2022/03/11 08:08:06;;;;;;;18.40;9.80;;;;;;;;;;4348420;33;20062;-78
2022/03/11 08:10:33;;;;;;;;;;;;;;;;;;4345430;33;20406;-78
2022/03/11 08:12:59;;;;;;;23.10;10.65;;;;;;;;;;4360685;32;19954;-77
2022/03/11 08:15:24;;;;;;;18.92;9.02;;;;;;;;;;4357327;33;20064;-80
2022/03/11 08:17:49;;;;;;;;;;;;;;;;;;4358982;33;20042;-79
2022/03/11 08:20:15;;;;;;;18.73;10.45;;;;;;;;;;4332980;33;19943;-77
2022/03/11 08:22:40;;;;;;;19.92;9.77;;;;;;;;;;4332509;33;20139;-76
2022/03/11 08:25:05;;;;;;;;;;;;;;;;;;4347058;33;20116;-77
2022/03/11 08:27:31;;;;;;;23.45;10.85;;;;;;;;;;4354475;32;19990;-77
2022/03/11 08:29:57;;;;;;;;;;;;;;;;;;4346997;33;20185;-78
2022/03/11 08:32:23;;;;;;;21.30;10.50;;;;;;;;;;4358403;32;20374;-78
2022/03/11 08:34:48;;;;;;;17.23;10.10;;;;;;;;;;4358916;32;20405;-78
2022/03/11 08:37:14;;;;;;;20.10;10.07;;;;;;;;;;4345954;33;20046;-78
2022/03/11 08:39:39;;;;;;;;;;;;;;;;;;4345444;33;20215;-79
2022/03/11 08:42:04;;;;;;;21.77;10.65;;;;;;;;;;4359921;32;19938;-77
2022/03/11 08:44:29;;;;;;;17.70;10.30;;;;;;;;;;4361413;32;20139;-77
2022/03/11 08:46:54;;;;;;;;;;;;;;;;;;4358796;33;20463;-77
2022/03/11 08:49:20;;;;;;;22.15;10.85;;;;;;;;;;4359672;32;20262;-75
2022/03/11 08:51:45;;;;;;;;;;;;;;;;;;4359139;33;20556;-78
2022/03/11 08:54:10;;;;;;;27.00;10.63;;;;;;;;;;4355809;33;19958;-78
2022/03/11 08:56:35;;;;;;;;;;;;;;;;;;4349135;33;20054;-77
2022/03/11 08:59:00;;;;;;;25.88;10.27;;;;;;;;;;4331077;33;19938;-78
2022/03/11 09:01:25;;;;;;;;;;;;;;;;;;4333118;33;20062;-77
2022/03/11 09:03:50;;;;;;;26.48;10.90;;;;;;;;;;4345982;33;19953;-77
2022/03/11 09:06:16;;;;;;;;;;;;;;;;;;4346373;33;20057;-78
2022/03/11 09:08:41;;;;;;;20.88;10.18;;;;;;;;;;4345736;33;19961;-77
2022/03/11 09:11:06;;;;;;;25.83;10.43;;;;;;;;;;4357892;33;20129;-77
2022/03/11 09:13:31;;;;;;;;;;;;;;;;;;4345440;33;20480;-78
2022/03/11 09:15:57;;;;;;;20.48;10.65;;;;;;;;;;4343232;33;19938;-78
2022/03/11 09:18:22;;;;;;;;;;;;;;;;;;4344569;33;20162;-77
2022/03/11 09:20:48;;;;;;;25.02;10.98;;;;;;;;;;4344693;33;19935;-77
2022/03/11 09:23:14;;;;;;;34.47;12.25;;;;;;;;;;4344287;33;20062;-77
2022/03/11 09:25:39;;;;;;;23.95;10.88;;;;;;;;;;4345082;33;20117;-78
2022/03/11 09:28:04;;;;;;;;;;;;;;;;;;4341603;33;20024;-77
2022/03/11 09:30:29;;;;;;;22.98;11.05;;;;;;;;;;4330649;33;19977;-78
2022/03/11 09:32:54;;;;;;;;;;;;;;;;;;4343979;33;20095;-78
2022/03/11 09:35:19;;;;;;;18.90;11.07;;;;;;;;;;4330868;33;19930;-78
2022/03/11 09:37:45;;;;;;;;;;;;;;;;;;4343037;33;20114;-78
2022/03/11 09:40:12;;;;;;;25.27;11.25;;;;;;;;;;4325188;33;20284;-78
2022/03/11 09:42:37;;;;;;;17.27;10.52;;;;;;;;;;4337199;33;20124;-79
2022/03/11 09:45:02;;;;;;;;;;;;;;;;;;4343912;33;20059;-78
2022/03/11 09:47:27;;;;;;;19.10;10.48;;;;;;;;;;4330399;33;19942;-79
2022/03/11 09:49:53;;;;;;;;;;;;;;;;;;4343529;33;20420;-77
2022/03/11 09:52:23;;;;;;;26.77;10.82;;;;;;;;;;4343284;33;19943;-79
2022/03/11 09:54:49;;;;;;;27.87;11.18;;;;;;;;;;4343879;33;20020;-77
2022/03/11 09:57:14;;;;;;;;;;;;;;;;;;4344131;33;20062;-79
2022/03/11 09:59:39;;;;;;;34.83;12.30;;;;;;;;;;4342832;33;19935;-77
2022/03/11 10:02:04;;;;;;;;;;;;;;;;;;4347436;33;20061;-77
2022/03/11 10:04:29;;;;;;;25.17;11.45;;;;;;;;;;4346449;33;19994;-78
2022/03/11 10:06:54;;;;;;;;;;;;;;;;;;4346560;33;20112;-78
2022/03/11 10:09:19;;;;;;;32.55;11.52;;;;;;;;;;4345646;33;20332;-78
2022/03/11 10:11:45;;;;;;;;;;;;;;;;;;4348124;33;20050;-77
2022/03/11 10:14:12;;;;;;;19.98;10.80;;;;;;;;;;4347105;33;20351;-77
2022/03/11 10:16:38;;;;;;;20.20;10.70;;;;;;;;;;4333102;33;20036;-78
2022/03/11 10:19:03;;;;;;;;;;;;;;;;;;4333398;33;20226;-78
2022/03/11 10:21:29;;;;;;;21.83;12.10;;;;;;;;;;4333508;33;19989;-78
2022/03/11 10:23:54;;;;;;;18.08;10.60;;;;;;;;;;4345291;33;20372;-79
2022/03/11 10:26:20;;;;;;;;;;;;;;;;;;4350756;33;20036;-77
2022/03/11 10:28:55;;;;;;;19.50;10.82;;;;;;;;;;4344697;33;19946;-77
2022/03/11 10:31:28;;;;;;;21.12;11.52;;;;;;;;;;4345127;33;20087;-78
2022/03/11 10:34:09;;;;;;;18.30;11.45;;;;;;;;;;4345510;33;20091;-78
2022/03/11 10:36:35;;;;;;;20.10;11.15;;;;;;;;;;4344774;33;20032;-78
2022/03/11 10:39:00;;;;;;;;;;;;;;;;;;4357576;33;20421;-79
2022/03/11 10:41:32;;;;;;;51.10;11.95;;;;;;;;;;4345885;33;19948;-78
2022/03/11 10:44:04;;;;;;;24.30;11.90;;;;;;;;;;4345133;33;20019;-78
2022/03/11 10:46:29;;;;;;;23.58;12.15;;;;;;;;;;4339951;33;20058;-79
2022/03/11 10:48:56;;;;;;;;;;;;;;;;;;4345158;33;20036;-78
2022/03/11 10:51:24;;;;;;;19.00;11.07;;;;;;;;;;4331965;33;19935;-78
2022/03/11 10:53:49;;;;;;;19.80;10.93;;;;;;;;;;4333486;33;20433;-78
2022/03/11 10:56:14;;;;;;;;;;;;;;;;;;4346350;33;20070;-79
2022/03/11 10:58:39;;;;;;;22.02;11.38;;;;;;;;;;4332891;33;19950;-78
2022/03/11 11:01:05;;;;;;;;;;;;;;;;;;4343242;33;20163;-78
2022/03/11 11:03:30;;;;;;;23.62;11.88;;;;;;;;;;4334647;33;19982;-78
2022/03/11 11:05:55;;;;;;;;;;;;;;;;;;4341360;32;20068;-78
2022/03/11 11:08:21;;;;;;;20.62;11.15;;;;;;;;;;4345135;33;19931;-79
2022/03/11 11:10:46;;;;;;;;;;;;;;;;;;4347149;33;20441;-78
2022/03/11 11:13:11;;;;;;;34.15;14.20;;;;;;;;;;4332661;33;19973;-78
2022/03/11 11:15:36;;;;;;;;;;;;;;;;;;4356915;33;20050;-77
2022/03/11 11:18:07;;;;;;;21.37;11.80;;;;;;;;;;4329292;33;20281;-80
2022/03/11 11:20:46;;;;;;;23.38;12.32;;;;;;;;;;4343886;33;20028;-79
2022/03/11 11:23:11;;;;;;;21.48;11.70;;;;;;;;;;4331582;33;20047;-77
2022/03/11 11:25:40;;;;;;;19.42;12.88;;;;;;;;;;4339370;33;20326;-78
2022/03/11 11:28:10;;;;;;;23.70;11.88;;;;;;;;;;4343092;33;20024;-78
2022/03/11 11:30:36;;;;;;;25.77;11.68;;;;;;;;;;4328010;33;20028;-79
2022/03/11 11:33:02;;;;;;;17.95;11.10;;;;;;;;;;4345175;33;20031;-80
2022/03/11 11:35:32;;;;;;;24.45;12.98;;;;;;;;;;4340792;33;20150;-78
2022/03/11 11:37:58;;;;;;;21.67;12.63;;;;;;;;;;4319019;33;20424;-79
2022/03/11 11:40:23;;;;;;;24.08;11.27;;;;;;;;;;4332059;33;20055;-81
2022/03/11 11:43:07;;;;;;;14.40;10.30;;;;;;;;;;4335316;33;20032;-78
2022/03/11 11:45:53;;;;;;;19.85;10.77;;;;;;;;;;4361058;32;20136;-79
2022/03/11 11:48:44;;;;;;;26.42;11.10;;;;;;;;;;4347359;33;20047;-80
2022/03/11 11:51:11;;;;;;;18.48;10.88;;;;;;;;;;4359559;32;20429;-78
2022/03/11 11:53:42;;;;;;;20.92;11.07;;;;;;;;;;4345623;33;20024;-80
2022/03/11 11:56:26;;;;;;;17.27;10.68;;;;;;;;;;4341816;33;20070;-80
2022/03/11 11:58:56;;;;;;;22.92;12.13;;;;;;;;;;4329811;33;20028;-78
2022/03/11 12:01:36;;;;;;;14.82;10.98;;;;;;;;;;4356448;32;20059;-79
2022/03/11 12:04:20;;;;;;;22.27;11.68;;;;;;;;;;4358897;32;20027;-79
2022/03/11 12:06:52;;;;;;;20.23;11.40;;;;;;;;;;4358329;33;20022;-80
2022/03/11 12:09:36;;;;;;;14.18;10.63;;;;;;;;;;4360270;32;20341;-79
2022/03/11 12:12:02;;;;;;;21.00;13.65;;;;;;;;;;4349727;33;20039;-80
2022/03/11 12:14:29;;;;;;;25.73;11.85;;;;;;;;;;4345255;33;20096;-80
2022/03/11 12:17:01;;;;;;;16.77;11.45;;;;;;;;;;4345966;33;20018;-81
2022/03/11 12:19:40;;;;;;;22.23;11.63;;;;;;;;;;4346039;33;20393;-80
2022/03/11 12:22:24;;;;;;;17.12;11.95;;;;;;;;;;4359964;32;20039;-79
2022/03/11 12:24:59;;;;;;;19.45;11.10;;;;;;;;;;4359534;32;20023;-80
2022/03/11 12:27:43;;;;;;;15.27;10.57;;;;;;;;;;4358063;32;20073;-80
2022/03/11 12:30:10;;;;;;;18.98;10.60;;;;;;;;;;4358156;33;20322;-79
2022/03/11 12:32:38;;;;;;;15.52;10.93;;;;;;;;;;4344149;33;20051;-78
2022/03/11 12:35:05;;;;;;;15.80;11.40;;;;;;;;;;4340637;33;20216;-79
2022/03/11 12:37:31;;;;;;;15.63;10.95;;;;;;;;;;4331218;33;20020;-79
2022/03/11 12:40:00;;;;;;;20.73;12.40;;;;;;;;;;4344166;33;20393;-80
2022/03/11 12:42:42;;;;;;;17.15;11.68;;;;;;;;;;4331630;33;20042;-79
2022/03/11 12:45:08;;;;;;;27.23;12.48;;;;;;;;;;4346016;33;20036;-80
2022/03/11 12:47:37;;;;;;;20.98;12.25;;;;;;;;;;4345218;33;20062;-80
2022/03/11 12:50:08;;;;;;;18.05;12.40;;;;;;;;;;4331131;33;20048;-79
2022/03/11 12:52:40;;;;;;;25.37;12.57;;;;;;;;;;4345232;33;20078;-79
2022/03/11 12:55:22;;;;;;;20.58;12.63;;;;;;;;;;4293822;32;1851265;-81
2022/03/11 12:57:51;;;;;;;29.42;12.25;;;;;;;;;;4341220;33;136024;-80
2022/03/11 13:00:18;;;;;;;17.95;12.20;;;;;;;;;;4346392;33;20027;-80
2022/03/11 13:02:50;;;;;;;19.85;12.60;;;;;;;;;;4346604;33;20468;-80
2022/03/11 13:05:23;;;;;;;23.02;13.18;;;;;;;;;;4346703;33;20042;-78
2022/03/11 13:07:50;;;;;;;20.02;12.95;;;;;;;;;;4346504;33;20031;-81
2022/03/11 13:10:24;;;;;;;18.40;12.13;;;;;;;;;;4347495;32;20027;-79
2022/03/11 13:12:50;;;;;;;27.15;12.88;;;;;;;;;;4360807;32;20451;-80
2022/03/11 13:15:16;;;;;;;26.20;14.30;;;;;;;;;;4354226;33;20086;-78
2022/03/11 13:17:42;;;;;;;25.33;13.85;;;;;;;;;;4357007;33;20051;-79
2022/03/11 13:20:08;;;;;;;19.23;12.93;;;;;;;;;;4355512;32;20429;-79
2022/03/11 13:22:33;;;;;;;22.85;14.30;;;;;;;;;;4353577;33;20170;-77
2022/03/11 13:25:05;;;;;;;20.67;12.95;;;;;;;;;;4357184;33;20081;-79
2022/03/11 13:27:37;;;;;;;24.58;13.60;;;;;;;;;;4357961;33;20073;-79
2022/03/11 13:30:06;;;;;;;24.08;14.75;;;;;;;;;;4358344;33;20047;-79
2022/03/11 13:32:31;;;;;;;24.85;13.40;;;;;;;;;;4357777;33;20024;-79
2022/03/11 13:34:56;;;;;;;18.37;13.50;;;;;;;;;;4356978;33;20031;-79
2022/03/11 13:37:22;;;;;;;25.77;14.32;;;;;;;;;;4359414;32;20542;-79
2022/03/11 13:40:05;;;;;;;27.40;14.43;;;;;;;;;;4359943;32;20069;-79
2022/03/11 13:42:30;;;;;;;27.70;15.38;;;;;;;;;;4360644;32;20050;-80
2022/03/11 13:45:03;;;;;;;26.92;14.15;;;;;;;;;;4359931;32;20024;-79
2022/03/11 13:47:28;;;;;;;26.17;15.15;;;;;;;;;;4362079;32;20042;-79
2022/03/11 13:49:53;;;;;;;28.98;16.55;;;;;;;;;;4360347;33;20409;-79
2022/03/11 13:52:22;;;;;;;27.07;13.87;;;;;;;;;;4361297;32;20385;-79
2022/03/11 13:54:48;;;;;;;25.95;15.65;;;;;;;;;;4359747;32;20139;-79
2022/03/11 13:57:17;;;;;;;23.98;14.68;;;;;;;;;;4343941;33;20075;-80
2022/03/11 13:59:42;;;;;;;25.77;15.70;;;;;;;;;;4347210;33;20143;-80
2022/03/11 14:02:08;;;;;;;24.00;14.87;;;;;;;;;;4345291;33;20035;-80
2022/03/11 14:04:33;;;;;;;26.58;16.37;;;;;;;;;;4345770;33;20453;-81
2022/03/11 14:07:05;;;;;;;20.80;15.07;;;;;;;;;;4346824;33;20027;-81
2022/03/11 14:09:31;;;;;;;28.00;14.70;;;;;;;;;;4346013;33;20128;-79
2022/03/11 14:11:56;;;;;;;24.43;15.57;;;;;;;;;;4345596;33;20057;-80
2022/03/11 14:14:24;;;;;;;24.58;15.27;;;;;;;;;;4346692;33;20125;-80
2022/03/11 14:16:53;;;;;;;27.15;15.10;;;;;;;;;;4345520;33;20023;-80
2022/03/11 14:19:18;;;;;;;20.37;16.48;;;;;;;;;;4345388;33;20115;-80
2022/03/11 14:21:43;;;;;;;29.90;16.90;;;;;;;;;;4333059;33;20043;-81
2022/03/11 14:24:09;;;;;;;27.67;16.70;;;;;;;;;;4346911;33;20040;-79
2022/03/11 14:26:34;;;;;;;28.15;15.43;;;;;;;;;;4346836;33;20404;-79
2022/03/11 14:28:59;;;;;;;24.00;16.40;;;;;;;;;;4346294;33;20028;-81
2022/03/11 14:31:28;;;;;;;27.25;16.17;;;;;;;;;;4345546;33;20070;-80
2022/03/11 14:33:54;;;;;;;27.55;16.83;;;;;;;;;;4347080;33;20098;-80
2022/03/11 14:36:19;;;;;;;26.15;15.60;;;;;;;;;;4359606;32;20153;-80
2022/03/11 14:38:47;;;;;;;26.65;15.43;;;;;;;;;;4354462;32;20069;-80
2022/03/11 14:41:13;;;;;;;25.30;14.85;;;;;;;;;;4360296;33;20027;-79
2022/03/11 14:43:38;;;;;;;22.23;15.18;;;;;;;;;;4360204;32;20057;-80
2022/03/11 14:46:03;;;;;;;24.63;16.20;;;;;;;;;;4360790;33;20110;-80
2022/03/11 14:48:28;;;;;;;21.40;15.45;;;;;;;;;;4360038;32;20238;-79
2022/03/11 14:50:53;;;;;;;29.00;16.83;;;;;;;;;;4359504;33;20071;-80